aviador You're here:

KOSU Decoded Metar

COLUMBUS/ST UNIV in OH, USA
Report Time2018-05-25 08:53:00
UTC Time2018-05-25 09:06:44
Flight Rules vfr VFR
WindCalm
Visibility9999 m
Phenomena:N/A
Clouds:N/A
Expected CloudBase > 400 ft AGL from Temp-Dew spread
CeilingNone
Temp13°C (ISA -0)
Dew Point12°C (94% RH)
QNH1018 hPa
Density Alt922 ft
Elevation919 ft
Report Wrong Elevation
Raw Report
KOSU 250853Z AUTO 00000KT 10SM CLR 13/12 A3005 RMK AO2 SLP172
T01330122 56009=

Extra information for KOSU:More info

Metar Taf Metar & Taf Last 4 Metars F.Rules Stats Wind Profile Meteogram Temp Stats Airport Information Weather charts Add Link Nearby VenuesMetar ALERT Operation Metar Decoded Social comments

AIRNAV info for KOSU